sensor_id;sensor_type;location;lat;lon;timestamp;P1;durP1;ratioP1;P2;durP2;ratioP2
28070;SDS011;15383;48.408;9.968;2022-12-10T00:01:07;3.28;;;2.53;;
28070;SDS011;15383;48.408;9.968;2022-12-10T00:03:35;3.85;;;2.58;;
28070;SDS011;15383;48.408;9.968;2022-12-10T00:06:01;4.70;;;2.92;;
28070;SDS011;15383;48.408;9.968;2022-12-10T00:08:28;4.22;;;2.60;;
28070;SDS011;15383;48.408;9.968;2022-12-10T00:10:53;4.22;;;2.88;;
28070;SDS011;15383;48.408;9.968;2022-12-10T00:13:19;3.75;;;2.67;;
28070;SDS011;15383;48.408;9.968;2022-12-10T00:15:45;4.65;;;3.08;;
28070;SDS011;15383;48.408;9.968;2022-12-10T00:18:10;3.67;;;2.30;;
28070;SDS011;15383;48.408;9.968;2022-12-10T00:20:37;3.95;;;2.75;;
28070;SDS011;15383;48.408;9.968;2022-12-10T00:23:02;6.68;;;3.00;;
28070;SDS011;15383;48.408;9.968;2022-12-10T00:25:29;3.80;;;2.90;;
28070;SDS011;15383;48.408;9.968;2022-12-10T00:27:54;4.68;;;2.80;;
28070;SDS011;15383;48.408;9.968;2022-12-10T00:30:20;4.80;;;2.67;;
28070;SDS011;15383;48.408;9.968;2022-12-10T00:32:46;3.60;;;2.70;;
28070;SDS011;15383;48.408;9.968;2022-12-10T00:35:11;5.00;;;2.88;;
28070;SDS011;15383;48.408;9.968;2022-12-10T00:37:37;4.75;;;2.63;;
28070;SDS011;15383;48.408;9.968;2022-12-10T00:40:02;5.70;;;2.72;;
28070;SDS011;15383;48.408;9.968;2022-12-10T00:42:28;4.35;;;3.00;;
28070;SDS011;15383;48.408;9.968;2022-12-10T00:44:54;4.45;;;2.97;;
28070;SDS011;15383;48.408;9.968;2022-12-10T00:47:19;5.50;;;3.50;;
28070;SDS011;15383;48.408;9.968;2022-12-10T00:49:45;5.07;;;3.03;;
28070;SDS011;15383;48.408;9.968;2022-12-10T00:52:10;5.88;;;3.25;;
28070;SDS011;15383;48.408;9.968;2022-12-10T00:54:36;5.45;;;3.15;;
28070;SDS011;15383;48.408;9.968;2022-12-10T00:57:01;4.55;;;3.00;;
28070;SDS011;15383;48.408;9.968;2022-12-10T00:59:27;4.93;;;2.90;;
28070;SDS011;15383;48.408;9.968;2022-12-10T01:01:53;4.18;;;2.80;;
28070;SDS011;15383;48.408;9.968;2022-12-10T01:04:18;4.30;;;2.97;;
28070;SDS011;15383;48.408;9.968;2022-12-10T01:06:45;4.57;;;3.10;;
28070;SDS011;15383;48.408;9.968;2022-12-10T01:09:13;4.75;;;2.70;;
28070;SDS011;15383;48.408;9.968;2022-12-10T01:11:41;5.50;;;3.13;;
28070;SDS011;15383;48.408;9.968;2022-12-10T01:14:09;4.82;;;3.17;;
28070;SDS011;15383;48.408;9.968;2022-12-10T01:16:36;5.97;;;2.97;;
28070;SDS011;15383;48.408;9.968;2022-12-10T01:19:02;6.20;;;3.25;;
28070;SDS011;15383;48.408;9.968;2022-12-10T01:21:29;5.63;;;3.00;;
28070;SDS011;15383;48.408;9.968;2022-12-10T01:23:55;5.10;;;2.90;;
28070;SDS011;15383;48.408;9.968;2022-12-10T01:26:23;4.72;;;2.88;;
28070;SDS011;15383;48.408;9.968;2022-12-10T01:28:51;3.80;;;2.50;;
28070;SDS011;15383;48.408;9.968;2022-12-10T01:31:19;4.63;;;2.83;;
28070;SDS011;15383;48.408;9.968;2022-12-10T01:33:46;3.78;;;2.78;;
28070;SDS011;15383;48.408;9.968;2022-12-10T01:36:14;4.00;;;2.40;;
28070;SDS011;15383;48.408;9.968;2022-12-10T01:38:42;4.38;;;2.90;;
28070;SDS011;15383;48.408;9.968;2022-12-10T01:41:10;5.10;;;2.90;;
28070;SDS011;15383;48.408;9.968;2022-12-10T01:43:50;4.60;;;2.38;;
28070;SDS011;15383;48.408;9.968;2022-12-10T01:46:20;4.22;;;2.78;;
28070;SDS011;15383;48.408;9.968;2022-12-10T01:48:48;3.67;;;2.60;;
28070;SDS011;15383;48.408;9.968;2022-12-10T01:51:15;3.92;;;2.80;;
28070;SDS011;15383;48.408;9.968;2022-12-10T01:53:41;3.63;;;2.47;;
28070;SDS011;15383;48.408;9.968;2022-12-10T01:56:08;4.30;;;2.47;;
28070;SDS011;15383;48.408;9.968;2022-12-10T01:58:35;4.53;;;2.70;;
28070;SDS011;15383;48.408;9.968;2022-12-10T02:01:08;4.43;;;2.75;;
28070;SDS011;15383;48.408;9.968;2022-12-10T02:06:29;4.68;;;2.75;;
28070;SDS011;15383;48.408;9.968;2022-12-10T02:12:02;2.75;;;2.38;;
28070;SDS011;15383;48.408;9.968;2022-12-10T02:17:19;5.20;;;2.80;;
28070;SDS011;15383;48.408;9.968;2022-12-10T02:22:31;4.18;;;2.75;;
28070;SDS011;15383;48.408;9.968;2022-12-10T02:25:03;6.72;;;2.60;;
28070;SDS011;15383;48.408;9.968;2022-12-10T02:27:37;3.70;;;2.60;;
28070;SDS011;15383;48.408;9.968;2022-12-10T02:30:25;4.00;;;2.42;;
28070;SDS011;15383;48.408;9.968;2022-12-10T02:32:52;4.22;;;2.80;;
28070;SDS011;15383;48.408;9.968;2022-12-10T02:35:20;3.83;;;2.83;;
28070;SDS011;15383;48.408;9.968;2022-12-10T02:37:56;3.55;;;2.58;;
28070;SDS011;15383;48.408;9.968;2022-12-10T02:40:29;3.45;;;2.60;;
28070;SDS011;15383;48.408;9.968;2022-12-10T02:42:57;7.13;;;2.50;;
28070;SDS011;15383;48.408;9.968;2022-12-10T02:45:23;3.90;;;2.40;;
28070;SDS011;15383;48.408;9.968;2022-12-10T02:47:51;3.83;;;3.00;;
28070;SDS011;15383;48.408;9.968;2022-12-10T02:50:19;2.92;;;2.45;;
28070;SDS011;15383;48.408;9.968;2022-12-10T02:52:46;4.22;;;2.85;;
28070;SDS011;15383;48.408;9.968;2022-12-10T02:55:12;3.72;;;2.42;;
28070;SDS011;15383;48.408;9.968;2022-12-10T03:00:52;3.15;;;2.33;;
28070;SDS011;15383;48.408;9.968;2022-12-10T03:03:50;3.22;;;2.42;;
28070;SDS011;15383;48.408;9.968;2022-12-10T03:06:32;2.95;;;2.33;;
28070;SDS011;15383;48.408;9.968;2022-12-10T03:09:09;2.33;;;2.13;;
28070;SDS011;15383;48.408;9.968;2022-12-10T03:12:15;3.38;;;2.28;;
28070;SDS011;15383;48.408;9.968;2022-12-10T03:14:45;4.25;;;2.53;;
28070;SDS011;15383;48.408;9.968;2022-12-10T03:17:12;3.22;;;2.33;;
28070;SDS011;15383;48.408;9.968;2022-12-10T03:19:40;3.17;;;2.17;;
28070;SDS011;15383;48.408;9.968;2022-12-10T03:22:09;3.03;;;2.00;;
28070;SDS011;15383;48.408;9.968;2022-12-10T03:24:37;5.07;;;2.28;;
28070;SDS011;15383;48.408;9.968;2022-12-10T03:27:05;5.45;;;2.58;;
28070;SDS011;15383;48.408;9.968;2022-12-10T03:29:34;2.90;;;2.25;;
28070;SDS011;15383;48.408;9.968;2022-12-10T03:32:04;2.35;;;2.08;;
28070;SDS011;15383;48.408;9.968;2022-12-10T03:34:30;2.70;;;2.10;;
28070;SDS011;15383;48.408;9.968;2022-12-10T03:36:56;4.40;;;2.33;;
28070;SDS011;15383;48.408;9.968;2022-12-10T03:39:23;3.03;;;2.20;;
28070;SDS011;15383;48.408;9.968;2022-12-10T03:41:50;3.92;;;2.47;;
28070;SDS011;15383;48.408;9.968;2022-12-10T03:44:26;3.25;;;2.20;;
28070;SDS011;15383;48.408;9.968;2022-12-10T03:46:53;4.60;;;2.70;;
28070;SDS011;15383;48.408;9.968;2022-12-10T03:49:19;4.35;;;2.20;;
28070;SDS011;15383;48.408;9.968;2022-12-10T03:51:44;2.72;;;2.22;;
28070;SDS011;15383;48.408;9.968;2022-12-10T03:54:10;3.50;;;2.40;;
28070;SDS011;15383;48.408;9.968;2022-12-10T03:56:35;2.78;;;2.05;;
28070;SDS011;15383;48.408;9.968;2022-12-10T03:59:01;4.30;;;2.33;;
28070;SDS011;15383;48.408;9.968;2022-12-10T04:01:26;4.40;;;2.80;;
28070;SDS011;15383;48.408;9.968;2022-12-10T04:03:52;6.32;;;2.85;;
28070;SDS011;15383;48.408;9.968;2022-12-10T04:06:18;3.75;;;2.17;;
28070;SDS011;15383;48.408;9.968;2022-12-10T04:08:44;4.22;;;2.33;;
28070;SDS011;15383;48.408;9.968;2022-12-10T04:11:11;4.57;;;2.33;;
28070;SDS011;15383;48.408;9.968;2022-12-10T04:13:38;8.07;;;2.53;;
28070;SDS011;15383;48.408;9.968;2022-12-10T04:16:23;2.90;;;2.22;;
28070;SDS011;15383;48.408;9.968;2022-12-10T04:18:57;3.53;;;2.47;;
28070;SDS011;15383;48.408;9.968;2022-12-10T04:21:29;3.17;;;2.20;;
28070;SDS011;15383;48.408;9.968;2022-12-10T04:24:14;2.33;;;2.13;;
28070;SDS011;15383;48.408;9.968;2022-12-10T04:27:02;3.20;;;2.45;;
28070;SDS011;15383;48.408;9.968;2022-12-10T04:29:30;2.83;;;2.13;;
28070;SDS011;15383;48.408;9.968;2022-12-10T04:31:56;2.85;;;2.30;;
28070;SDS011;15383;48.408;9.968;2022-12-10T04:34:22;3.20;;;2.42;;
28070;SDS011;15383;48.408;9.968;2022-12-10T04:36:48;2.42;;;2.17;;
28070;SDS011;15383;48.408;9.968;2022-12-10T04:39:14;4.82;;;2.33;;
28070;SDS011;15383;48.408;9.968;2022-12-10T04:41:41;2.58;;;2.28;;
28070;SDS011;15383;48.408;9.968;2022-12-10T04:44:08;3.38;;;2.13;;
28070;SDS011;15383;48.408;9.968;2022-12-10T04:46:34;3.60;;;1.90;;
28070;SDS011;15383;48.408;9.968;2022-12-10T04:49:00;3.75;;;2.22;;
28070;SDS011;15383;48.408;9.968;2022-12-10T04:51:25;4.32;;;1.98;;
28070;SDS011;15383;48.408;9.968;2022-12-10T04:53:51;3.53;;;2.42;;
28070;SDS011;15383;48.408;9.968;2022-12-10T04:56:16;3.85;;;2.40;;
28070;SDS011;15383;48.408;9.968;2022-12-10T04:58:42;3.72;;;2.08;;
28070;SDS011;15383;48.408;9.968;2022-12-10T05:01:08;3.97;;;2.30;;
28070;SDS011;15383;48.408;9.968;2022-12-10T05:03:35;3.03;;;2.20;;
28070;SDS011;15383;48.408;9.968;2022-12-10T05:06:02;2.42;;;1.88;;
28070;SDS011;15383;48.408;9.968;2022-12-10T05:08:28;3.83;;;2.25;;
28070;SDS011;15383;48.408;9.968;2022-12-10T05:10:54;3.08;;;2.15;;
28070;SDS011;15383;48.408;9.968;2022-12-10T05:13:20;2.35;;;1.90;;
28070;SDS011;15383;48.408;9.968;2022-12-10T05:15:45;2.35;;;1.92;;
28070;SDS011;15383;48.408;9.968;2022-12-10T05:18:11;4.38;;;2.40;;
28070;SDS011;15383;48.408;9.968;2022-12-10T05:20:36;3.80;;;2.13;;
28070;SDS011;15383;48.408;9.968;2022-12-10T05:23:02;2.47;;;1.95;;
28070;SDS011;15383;48.408;9.968;2022-12-10T05:25:46;3.05;;;2.00;;
28070;SDS011;15383;48.408;9.968;2022-12-10T05:28:21;3.78;;;2.08;;
28070;SDS011;15383;48.408;9.968;2022-12-10T05:30:47;3.72;;;2.13;;
28070;SDS011;15383;48.408;9.968;2022-12-10T05:33:13;2.88;;;2.15;;
28070;SDS011;15383;48.408;9.968;2022-12-10T05:35:39;2.30;;;1.92;;
28070;SDS011;15383;48.408;9.968;2022-12-10T05:38:05;2.75;;;1.83;;
28070;SDS011;15383;48.408;9.968;2022-12-10T05:40:34;3.38;;;2.20;;
28070;SDS011;15383;48.408;9.968;2022-12-10T05:43:00;3.08;;;2.20;;
28070;SDS011;15383;48.408;9.968;2022-12-10T05:45:26;2.40;;;1.95;;
28070;SDS011;15383;48.408;9.968;2022-12-10T05:47:52;3.28;;;1.90;;
28070;SDS011;15383;48.408;9.968;2022-12-10T05:50:17;2.40;;;2.00;;
28070;SDS011;15383;48.408;9.968;2022-12-10T05:52:43;3.25;;;2.17;;
28070;SDS011;15383;48.408;9.968;2022-12-10T05:55:08;2.30;;;1.80;;
28070;SDS011;15383;48.408;9.968;2022-12-10T05:57:35;3.15;;;2.08;;
28070;SDS011;15383;48.408;9.968;2022-12-10T06:00:02;2.78;;;1.80;;
28070;SDS011;15383;48.408;9.968;2022-12-10T06:02:29;2.85;;;2.10;;
28070;SDS011;15383;48.408;9.968;2022-12-10T06:04:57;4.00;;;1.75;;
28070;SDS011;15383;48.408;9.968;2022-12-10T06:07:22;3.03;;;1.98;;
28070;SDS011;15383;48.408;9.968;2022-12-10T06:09:48;2.75;;;2.17;;
28070;SDS011;15383;48.408;9.968;2022-12-10T06:12:13;2.40;;;2.10;;
28070;SDS011;15383;48.408;9.968;2022-12-10T06:14:39;2.90;;;1.98;;
28070;SDS011;15383;48.408;9.968;2022-12-10T06:17:04;2.75;;;2.08;;
28070;SDS011;15383;48.408;9.968;2022-12-10T06:19:30;3.67;;;2.40;;
28070;SDS011;15383;48.408;9.968;2022-12-10T06:21:55;2.25;;;2.05;;
28070;SDS011;15383;48.408;9.968;2022-12-10T06:24:23;3.38;;;2.28;;
28070;SDS011;15383;48.408;9.968;2022-12-10T06:26:48;3.83;;;2.10;;
28070;SDS011;15383;48.408;9.968;2022-12-10T06:29:14;2.72;;;1.92;;
28070;SDS011;15383;48.408;9.968;2022-12-10T06:31:39;2.42;;;2.17;;
28070;SDS011;15383;48.408;9.968;2022-12-10T06:34:05;3.40;;;2.20;;
28070;SDS011;15383;48.408;9.968;2022-12-10T06:36:30;3.13;;;2.10;;
28070;SDS011;15383;48.408;9.968;2022-12-10T06:38:56;3.03;;;1.83;;
28070;SDS011;15383;48.408;9.968;2022-12-10T06:41:22;3.35;;;2.15;;
28070;SDS011;15383;48.408;9.968;2022-12-10T06:43:48;2.80;;;2.10;;
28070;SDS011;15383;48.408;9.968;2022-12-10T06:46:14;2.05;;;1.85;;
28070;SDS011;15383;48.408;9.968;2022-12-10T06:48:42;2.80;;;1.98;;
28070;SDS011;15383;48.408;9.968;2022-12-10T06:51:08;2.63;;;2.22;;
28070;SDS011;15383;48.408;9.968;2022-12-10T06:53:35;2.78;;;2.10;;
28070;SDS011;15383;48.408;9.968;2022-12-10T06:56:02;2.63;;;2.00;;
28070;SDS011;15383;48.408;9.968;2022-12-10T06:58:28;2.53;;;1.77;;
28070;SDS011;15383;48.408;9.968;2022-12-10T07:01:02;2.30;;;1.80;;
28070;SDS011;15383;48.408;9.968;2022-12-10T07:03:32;2.33;;;1.80;;
28070;SDS011;15383;48.408;9.968;2022-12-10T07:06:01;2.88;;;1.80;;
28070;SDS011;15383;48.408;9.968;2022-12-10T07:08:28;1.90;;;1.70;;
28070;SDS011;15383;48.408;9.968;2022-12-10T07:10:53;1.58;;;1.48;;
28070;SDS011;15383;48.408;9.968;2022-12-10T07:13:19;3.33;;;1.60;;
28070;SDS011;15383;48.408;9.968;2022-12-10T07:15:45;3.70;;;2.20;;
28070;SDS011;15383;48.408;9.968;2022-12-10T07:18:11;3.13;;;1.75;;
28070;SDS011;15383;48.408;9.968;2022-12-10T07:20:36;5.07;;;2.10;;
28070;SDS011;15383;48.408;9.968;2022-12-10T07:23:02;2.30;;;1.92;;
28070;SDS011;15383;48.408;9.968;2022-12-10T07:25:27;2.13;;;1.77;;
28070;SDS011;15383;48.408;9.968;2022-12-10T07:27:53;3.05;;;2.05;;
28070;SDS011;15383;48.408;9.968;2022-12-10T07:30:19;2.40;;;1.73;;
28070;SDS011;15383;48.408;9.968;2022-12-10T07:32:44;2.17;;;1.67;;
28070;SDS011;15383;48.408;9.968;2022-12-10T07:35:11;2.35;;;1.60;;
28070;SDS011;15383;48.408;9.968;2022-12-10T07:37:36;4.15;;;2.33;;
28070;SDS011;15383;48.408;9.968;2022-12-10T07:40:02;2.45;;;1.80;;
28070;SDS011;15383;48.408;9.968;2022-12-10T07:42:28;2.80;;;2.03;;
28070;SDS011;15383;48.408;9.968;2022-12-10T07:44:53;2.70;;;2.35;;
28070;SDS011;15383;48.408;9.968;2022-12-10T07:47:19;2.45;;;1.80;;
28070;SDS011;15383;48.408;9.968;2022-12-10T07:49:45;2.97;;;1.95;;
28070;SDS011;15383;48.408;9.968;2022-12-10T07:52:10;3.00;;;2.33;;
28070;SDS011;15383;48.408;9.968;2022-12-10T07:54:36;2.85;;;2.05;;
28070;SDS011;15383;48.408;9.968;2022-12-10T07:57:01;2.55;;;1.90;;
28070;SDS011;15383;48.408;9.968;2022-12-10T07:59:27;2.30;;;1.60;;
28070;SDS011;15383;48.408;9.968;2022-12-10T08:01:53;2.60;;;2.08;;
28070;SDS011;15383;48.408;9.968;2022-12-10T08:04:18;2.83;;;1.63;;
28070;SDS011;15383;48.408;9.968;2022-12-10T08:06:44;3.70;;;2.17;;
28070;SDS011;15383;48.408;9.968;2022-12-10T08:09:10;2.33;;;1.83;;
28070;SDS011;15383;48.408;9.968;2022-12-10T08:11:37;2.78;;;2.00;;
28070;SDS011;15383;48.408;9.968;2022-12-10T08:14:02;2.72;;;1.83;;
28070;SDS011;15383;48.408;9.968;2022-12-10T08:16:28;2.28;;;1.77;;
28070;SDS011;15383;48.408;9.968;2022-12-10T08:18:56;3.47;;;1.83;;
28070;SDS011;15383;48.408;9.968;2022-12-10T08:21:24;2.78;;;1.95;;
28070;SDS011;15383;48.408;9.968;2022-12-10T08:23:52;3.00;;;1.77;;
28070;SDS011;15383;48.408;9.968;2022-12-10T08:26:19;3.00;;;1.85;;
28070;SDS011;15383;48.408;9.968;2022-12-10T08:28:46;2.80;;;2.03;;
28070;SDS011;15383;48.408;9.968;2022-12-10T08:31:14;2.50;;;1.70;;
28070;SDS011;15383;48.408;9.968;2022-12-10T08:33:41;2.45;;;1.90;;
28070;SDS011;15383;48.408;9.968;2022-12-10T08:36:07;3.28;;;2.28;;
28070;SDS011;15383;48.408;9.968;2022-12-10T08:38:36;2.75;;;1.90;;
28070;SDS011;15383;48.408;9.968;2022-12-10T08:41:09;2.28;;;1.63;;
28070;SDS011;15383;48.408;9.968;2022-12-10T08:43:36;4.57;;;1.98;;
28070;SDS011;15383;48.408;9.968;2022-12-10T08:46:02;1.92;;;1.63;;
28070;SDS011;15383;48.408;9.968;2022-12-10T08:48:29;2.80;;;1.92;;
28070;SDS011;15383;48.408;9.968;2022-12-10T08:50:55;2.45;;;1.95;;
28070;SDS011;15383;48.408;9.968;2022-12-10T08:53:20;2.72;;;1.90;;
28070;SDS011;15383;48.408;9.968;2022-12-10T08:55:48;2.72;;;2.00;;
28070;SDS011;15383;48.408;9.968;2022-12-10T08:58:15;2.42;;;2.08;;
28070;SDS011;15383;48.408;9.968;2022-12-10T09:00:41;2.85;;;1.92;;
28070;SDS011;15383;48.408;9.968;2022-12-10T09:03:07;1.95;;;1.60;;
28070;SDS011;15383;48.408;9.968;2022-12-10T09:05:33;3.42;;;2.00;;
28070;SDS011;15383;48.408;9.968;2022-12-10T09:07:59;2.63;;;1.90;;
28070;SDS011;15383;48.408;9.968;2022-12-10T09:10:25;3.30;;;2.38;;
28070;SDS011;15383;48.408;9.968;2022-12-10T09:12:50;4.75;;;1.85;;
28070;SDS011;15383;48.408;9.968;2022-12-10T09:15:16;2.53;;;1.95;;
28070;SDS011;15383;48.408;9.968;2022-12-10T09:17:42;2.80;;;1.80;;
28070;SDS011;15383;48.408;9.968;2022-12-10T09:20:07;3.15;;;1.98;;
28070;SDS011;15383;48.408;9.968;2022-12-10T09:22:33;2.05;;;1.85;;
28070;SDS011;15383;48.408;9.968;2022-12-10T09:25:02;2.95;;;2.00;;
28070;SDS011;15383;48.408;9.968;2022-12-10T09:27:29;2.17;;;1.95;;
28070;SDS011;15383;48.408;9.968;2022-12-10T09:29:55;2.60;;;1.90;;
28070;SDS011;15383;48.408;9.968;2022-12-10T09:32:21;2.25;;;1.92;;
28070;SDS011;15383;48.408;9.968;2022-12-10T09:34:46;4.00;;;2.10;;
28070;SDS011;15383;48.408;9.968;2022-12-10T09:37:16;4.32;;;2.13;;
28070;SDS011;15383;48.408;9.968;2022-12-10T09:39:42;2.78;;;1.90;;
28070;SDS011;15383;48.408;9.968;2022-12-10T09:42:13;3.95;;;2.28;;
28070;SDS011;15383;48.408;9.968;2022-12-10T09:45:10;3.10;;;2.00;;
28070;SDS011;15383;48.408;9.968;2022-12-10T09:47:59;2.80;;;1.85;;
28070;SDS011;15383;48.408;9.968;2022-12-10T09:50:41;3.45;;;2.30;;
28070;SDS011;15383;48.408;9.968;2022-12-10T09:53:15;2.88;;;2.03;;
28070;SDS011;15383;48.408;9.968;2022-12-10T09:55:45;2.28;;;1.83;;
28070;SDS011;15383;48.408;9.968;2022-12-10T09:58:20;2.08;;;1.80;;
28070;SDS011;15383;48.408;9.968;2022-12-10T10:00:57;2.55;;;1.77;;
28070;SDS011;15383;48.408;9.968;2022-12-10T10:03:25;2.63;;;1.67;;
28070;SDS011;15383;48.408;9.968;2022-12-10T10:05:54;2.63;;;2.00;;
28070;SDS011;15383;48.408;9.968;2022-12-10T10:13:30;2.80;;;1.70;;
28070;SDS011;15383;48.408;9.968;2022-12-10T10:18:50;2.80;;;1.92;;
28070;SDS011;15383;48.408;9.968;2022-12-10T10:21:26;2.97;;;1.90;;
28070;SDS011;15383;48.408;9.968;2022-12-10T10:24:04;2.40;;;1.98;;
28070;SDS011;15383;48.408;9.968;2022-12-10T10:26:31;3.75;;;2.40;;
28070;SDS011;15383;48.408;9.968;2022-12-10T10:28:59;4.40;;;1.83;;
28070;SDS011;15383;48.408;9.968;2022-12-10T10:31:28;3.67;;;1.90;;
28070;SDS011;15383;48.408;9.968;2022-12-10T10:33:56;3.13;;;1.98;;
28070;SDS011;15383;48.408;9.968;2022-12-10T10:36:29;2.70;;;1.92;;
28070;SDS011;15383;48.408;9.968;2022-12-10T10:39:07;2.88;;;1.98;;
28070;SDS011;15383;48.408;9.968;2022-12-10T10:41:37;2.90;;;2.08;;
28070;SDS011;15383;48.408;9.968;2022-12-10T10:44:04;2.50;;;1.75;;
28070;SDS011;15383;48.408;9.968;2022-12-10T10:46:47;3.28;;;1.88;;
28070;SDS011;15383;48.408;9.968;2022-12-10T10:51:46;2.42;;;1.98;;
28070;SDS011;15383;48.408;9.968;2022-12-10T10:54:12;3.58;;;2.35;;
28070;SDS011;15383;48.408;9.968;2022-12-10T10:57:22;2.72;;;2.10;;
28070;SDS011;15383;48.408;9.968;2022-12-10T11:00:06;2.63;;;1.92;;
28070;SDS011;15383;48.408;9.968;2022-12-10T11:02:43;2.95;;;2.10;;
28070;SDS011;15383;48.408;9.968;2022-12-10T11:08:01;4.35;;;2.00;;
28070;SDS011;15383;48.408;9.968;2022-12-10T11:10:49;3.17;;;2.08;;
28070;SDS011;15383;48.408;9.968;2022-12-10T11:13:23;2.08;;;1.83;;
28070;SDS011;15383;48.408;9.968;2022-12-10T11:18:41;2.28;;;2.03;;
28070;SDS011;15383;48.408;9.968;2022-12-10T11:21:17;3.70;;;2.17;;
28070;SDS011;15383;48.408;9.968;2022-12-10T11:23:46;3.13;;;2.20;;
28070;SDS011;15383;48.408;9.968;2022-12-10T11:26:21;3.40;;;2.10;;
28070;SDS011;15383;48.408;9.968;2022-12-10T11:37:39;3.15;;;2.05;;
28070;SDS011;15383;48.408;9.968;2022-12-10T11:46:03;2.45;;;1.90;;
28070;SDS011;15383;48.408;9.968;2022-12-10T11:48:46;3.63;;;2.15;;
28070;SDS011;15383;48.408;9.968;2022-12-10T11:51:30;2.28;;;1.63;;
28070;SDS011;15383;48.408;9.968;2022-12-10T11:59:51;2.45;;;1.88;;
28070;SDS011;15383;48.408;9.968;2022-12-10T12:05:18;3.22;;;1.98;;
28070;SDS011;15383;48.408;9.968;2022-12-10T12:10:45;3.13;;;1.95;;
28070;SDS011;15383;48.408;9.968;2022-12-10T12:13:17;2.38;;;1.92;;
28070;SDS011;15383;48.408;9.968;2022-12-10T12:16:11;2.22;;;2.00;;
28070;SDS011;15383;48.408;9.968;2022-12-10T12:19:00;2.47;;;1.75;;
28070;SDS011;15383;48.408;9.968;2022-12-10T12:21:30;2.03;;;1.80;;
28070;SDS011;15383;48.408;9.968;2022-12-10T12:26:38;2.75;;;2.10;;
28070;SDS011;15383;48.408;9.968;2022-12-10T12:31:46;2.85;;;2.00;;
28070;SDS011;15383;48.408;9.968;2022-12-10T12:34:29;2.42;;;1.92;;
28070;SDS011;15383;48.408;9.968;2022-12-10T12:37:08;3.20;;;1.75;;
28070;SDS011;15383;48.408;9.968;2022-12-10T12:42:25;3.00;;;2.13;;
28070;SDS011;15383;48.408;9.968;2022-12-10T12:45:20;2.97;;;1.58;;
28070;SDS011;15383;48.408;9.968;2022-12-10T12:47:56;2.17;;;1.90;;
28070;SDS011;15383;48.408;9.968;2022-12-10T12:50:53;3.05;;;2.05;;
28070;SDS011;15383;48.408;9.968;2022-12-10T12:53:23;3.03;;;1.77;;
28070;SDS011;15383;48.408;9.968;2022-12-10T13:01:22;2.08;;;1.70;;
28070;SDS011;15383;48.408;9.968;2022-12-10T13:03:51;3.25;;;2.03;;
28070;SDS011;15383;48.408;9.968;2022-12-10T13:06:20;2.33;;;1.45;;
28070;SDS011;15383;48.408;9.968;2022-12-10T13:11:39;2.90;;;1.90;;
28070;SDS011;15383;48.408;9.968;2022-12-10T13:14:32;5.15;;;2.22;;
28070;SDS011;15383;48.408;9.968;2022-12-10T13:17:05;4.72;;;1.83;;
28070;SDS011;15383;48.408;9.968;2022-12-10T13:19:51;2.20;;;1.75;;
28070;SDS011;15383;48.408;9.968;2022-12-10T13:25:13;2.50;;;1.80;;
28070;SDS011;15383;48.408;9.968;2022-12-10T13:27:41;3.25;;;1.95;;
28070;SDS011;15383;48.408;9.968;2022-12-10T13:30:27;3.65;;;2.00;;
28070;SDS011;15383;48.408;9.968;2022-12-10T13:33:30;2.65;;;1.98;;
28070;SDS011;15383;48.408;9.968;2022-12-10T13:35:52;2.40;;;2.08;;
28070;SDS011;15383;48.408;9.968;2022-12-10T13:38:23;3.65;;;1.80;;
28070;SDS011;15383;48.408;9.968;2022-12-10T13:40:58;2.35;;;1.75;;
28070;SDS011;15383;48.408;9.968;2022-12-10T13:43:52;3.38;;;1.90;;
28070;SDS011;15383;48.408;9.968;2022-12-10T13:52:19;2.53;;;1.88;;
28070;SDS011;15383;48.408;9.968;2022-12-10T13:58:19;2.22;;;1.83;;
28070;SDS011;15383;48.408;9.968;2022-12-10T14:00:58;3.45;;;2.20;;
28070;SDS011;15383;48.408;9.968;2022-12-10T14:06:13;2.45;;;2.10;;
28070;SDS011;15383;48.408;9.968;2022-12-10T14:08:40;2.80;;;1.92;;
28070;SDS011;15383;48.408;9.968;2022-12-10T14:11:20;2.08;;;1.65;;
28070;SDS011;15383;48.408;9.968;2022-12-10T14:13:50;3.30;;;2.03;;
28070;SDS011;15383;48.408;9.968;2022-12-10T14:16:20;2.42;;;1.98;;
28070;SDS011;15383;48.408;9.968;2022-12-10T14:18:55;2.75;;;2.00;;
28070;SDS011;15383;48.408;9.968;2022-12-10T14:21:26;2.28;;;1.75;;
28070;SDS011;15383;48.408;9.968;2022-12-10T14:23:56;1.95;;;1.77;;
28070;SDS011;15383;48.408;9.968;2022-12-10T14:26:28;2.63;;;1.95;;
28070;SDS011;15383;48.408;9.968;2022-12-10T14:28:59;2.78;;;1.80;;
28070;SDS011;15383;48.408;9.968;2022-12-10T14:31:34;5.07;;;1.90;;
28070;SDS011;15383;48.408;9.968;2022-12-10T14:34:05;3.40;;;1.90;;
28070;SDS011;15383;48.408;9.968;2022-12-10T14:36:34;2.38;;;1.95;;
28070;SDS011;15383;48.408;9.968;2022-12-10T14:39:19;2.40;;;1.65;;
28070;SDS011;15383;48.408;9.968;2022-12-10T14:41:50;3.53;;;1.92;;
28070;SDS011;15383;48.408;9.968;2022-12-10T14:44:18;2.40;;;1.77;;
28070;SDS011;15383;48.408;9.968;2022-12-10T14:46:46;3.22;;;1.83;;
28070;SDS011;15383;48.408;9.968;2022-12-10T14:49:15;2.55;;;1.90;;
28070;SDS011;15383;48.408;9.968;2022-12-10T14:51:45;2.17;;;1.92;;
28070;SDS011;15383;48.408;9.968;2022-12-10T14:54:28;2.50;;;2.05;;
28070;SDS011;15383;48.408;9.968;2022-12-10T14:56:56;2.92;;;1.98;;
28070;SDS011;15383;48.408;9.968;2022-12-10T14:59:26;2.10;;;1.80;;
28070;SDS011;15383;48.408;9.968;2022-12-10T15:01:59;2.40;;;1.80;;
28070;SDS011;15383;48.408;9.968;2022-12-10T15:04:39;3.60;;;1.73;;
28070;SDS011;15383;48.408;9.968;2022-12-10T15:07:17;2.45;;;1.77;;
28070;SDS011;15383;48.408;9.968;2022-12-10T15:09:45;3.53;;;2.10;;
28070;SDS011;15383;48.408;9.968;2022-12-10T15:12:15;2.95;;;1.77;;
28070;SDS011;15383;48.408;9.968;2022-12-10T15:15:09;2.63;;;1.90;;
28070;SDS011;15383;48.408;9.968;2022-12-10T15:17:42;2.15;;;1.73;;
28070;SDS011;15383;48.408;9.968;2022-12-10T15:20:27;2.28;;;1.85;;
28070;SDS011;15383;48.408;9.968;2022-12-10T15:23:07;2.13;;;1.42;;
28070;SDS011;15383;48.408;9.968;2022-12-10T15:25:46;2.20;;;1.80;;
28070;SDS011;15383;48.408;9.968;2022-12-10T15:28:21;2.63;;;2.00;;
28070;SDS011;15383;48.408;9.968;2022-12-10T15:30:47;3.53;;;2.17;;
28070;SDS011;15383;48.408;9.968;2022-12-10T15:33:39;2.55;;;1.80;;
28070;SDS011;15383;48.408;9.968;2022-12-10T15:39:03;2.88;;;2.05;;
28070;SDS011;15383;48.408;9.968;2022-12-10T15:41:48;2.03;;;1.83;;
28070;SDS011;15383;48.408;9.968;2022-12-10T15:47:17;2.83;;;2.15;;
28070;SDS011;15383;48.408;9.968;2022-12-10T15:49:44;2.15;;;1.77;;
28070;SDS011;15383;48.408;9.968;2022-12-10T15:52:21;2.80;;;1.83;;
28070;SDS011;15383;48.408;9.968;2022-12-10T15:54:49;2.95;;;2.00;;
28070;SDS011;15383;48.408;9.968;2022-12-10T15:57:17;2.55;;;1.95;;
28070;SDS011;15383;48.408;9.968;2022-12-10T15:59:51;2.47;;;1.95;;
28070;SDS011;15383;48.408;9.968;2022-12-10T16:02:26;2.22;;;2.00;;
28070;SDS011;15383;48.408;9.968;2022-12-10T16:05:16;2.25;;;1.85;;
28070;SDS011;15383;48.408;9.968;2022-12-10T16:08:00;3.85;;;2.67;;
28070;SDS011;15383;48.408;9.968;2022-12-10T16:10:47;2.05;;;1.70;;
28070;SDS011;15383;48.408;9.968;2022-12-10T16:13:19;4.00;;;2.22;;
28070;SDS011;15383;48.408;9.968;2022-12-10T16:16:00;2.83;;;1.80;;
28070;SDS011;15383;48.408;9.968;2022-12-10T16:18:30;2.28;;;1.88;;
28070;SDS011;15383;48.408;9.968;2022-12-10T16:20:56;2.58;;;2.25;;
28070;SDS011;15383;48.408;9.968;2022-12-10T16:23:22;3.20;;;2.03;;
28070;SDS011;15383;48.408;9.968;2022-12-10T16:25:47;2.58;;;1.90;;
28070;SDS011;15383;48.408;9.968;2022-12-10T16:28:14;2.65;;;1.80;;
28070;SDS011;15383;48.408;9.968;2022-12-10T16:30:45;3.22;;;2.05;;
28070;SDS011;15383;48.408;9.968;2022-12-10T16:33:14;4.05;;;2.47;;
28070;SDS011;15383;48.408;9.968;2022-12-10T16:35:40;3.70;;;1.70;;
28070;SDS011;15383;48.408;9.968;2022-12-10T16:38:07;2.42;;;2.00;;
28070;SDS011;15383;48.408;9.968;2022-12-10T16:40:34;3.55;;;1.92;;